sensor_id;sensor_type;location;lat;lon;timestamp;P1;durP1;ratioP1;P2;durP2;ratioP2
17763;SDS011;22245;52.832;13.816;2023-05-01T00:01:21;9.37;;;5.90;;
17763;SDS011;22245;52.832;13.816;2023-05-01T00:04:43;10.60;;;6.00;;
17763;SDS011;22245;52.832;13.816;2023-05-01T00:08:05;11.07;;;5.57;;
17763;SDS011;22245;52.832;13.816;2023-05-01T00:11:26;13.33;;;6.17;;
17763;SDS011;22245;52.832;13.816;2023-05-01T00:14:47;10.30;;;5.83;;
17763;SDS011;22245;52.832;13.816;2023-05-01T00:18:10;14.37;;;6.50;;
17763;SDS011;22245;52.832;13.816;2023-05-01T00:21:32;11.33;;;7.73;;
17763;SDS011;22245;52.832;13.816;2023-05-01T00:24:53;17.20;;;9.77;;
17763;SDS011;22245;52.832;13.816;2023-05-01T00:28:16;14.23;;;9.53;;
17763;SDS011;22245;52.832;13.816;2023-05-01T00:31:38;13.20;;;9.50;;
17763;SDS011;22245;52.832;13.816;2023-05-01T00:35:02;10.57;;;7.73;;
17763;SDS011;22245;52.832;13.816;2023-05-01T00:38:23;9.93;;;7.87;;
17763;SDS011;22245;52.832;13.816;2023-05-01T00:41:45;12.63;;;7.80;;
17763;SDS011;22245;52.832;13.816;2023-05-01T00:45:07;14.77;;;7.93;;
17763;SDS011;22245;52.832;13.816;2023-05-01T00:48:29;12.47;;;8.00;;
17763;SDS011;22245;52.832;13.816;2023-05-01T00:51:52;14.83;;;8.23;;
17763;SDS011;22245;52.832;13.816;2023-05-01T00:55:14;13.83;;;7.40;;
17763;SDS011;22245;52.832;13.816;2023-05-01T00:58:36;9.60;;;6.50;;
17763;SDS011;22245;52.832;13.816;2023-05-01T01:01:58;11.37;;;6.40;;
17763;SDS011;22245;52.832;13.816;2023-05-01T01:05:20;11.07;;;7.13;;
17763;SDS011;22245;52.832;13.816;2023-05-01T01:08:48;13.57;;;6.93;;
17763;SDS011;22245;52.832;13.816;2023-05-01T01:12:22;18.20;;;6.97;;
17763;SDS011;22245;52.832;13.816;2023-05-01T01:15:48;13.03;;;7.27;;
17763;SDS011;22245;52.832;13.816;2023-05-01T01:19:29;15.10;;;8.97;;
17763;SDS011;22245;52.832;13.816;2023-05-01T01:23:17;13.97;;;8.97;;
17763;SDS011;22245;52.832;13.816;2023-05-01T01:27:01;14.33;;;8.20;;
17763;SDS011;22245;52.832;13.816;2023-05-01T01:30:53;11.83;;;5.30;;
17763;SDS011;22245;52.832;13.816;2023-05-01T01:34:41;9.00;;;6.27;;
17763;SDS011;22245;52.832;13.816;2023-05-01T01:38:07;11.03;;;5.40;;
17763;SDS011;22245;52.832;13.816;2023-05-01T01:41:35;11.47;;;5.40;;
17763;SDS011;22245;52.832;13.816;2023-05-01T01:44:59;10.83;;;5.33;;
17763;SDS011;22245;52.832;13.816;2023-05-01T01:48:28;9.47;;;5.67;;
17763;SDS011;22245;52.832;13.816;2023-05-01T01:51:53;8.73;;;5.07;;
17763;SDS011;22245;52.832;13.816;2023-05-01T01:55:19;7.57;;;4.93;;
17763;SDS011;22245;52.832;13.816;2023-05-01T01:58:47;11.40;;;5.17;;
17763;SDS011;22245;52.832;13.816;2023-05-01T02:02:11;10.40;;;4.97;;
17763;SDS011;22245;52.832;13.816;2023-05-01T02:05:36;11.60;;;5.70;;
17763;SDS011;22245;52.832;13.816;2023-05-01T02:09:00;7.93;;;5.37;;
17763;SDS011;22245;52.832;13.816;2023-05-01T02:12:26;11.53;;;5.83;;
17763;SDS011;22245;52.832;13.816;2023-05-01T02:15:49;10.90;;;4.90;;
17763;SDS011;22245;52.832;13.816;2023-05-01T02:19:12;9.70;;;5.30;;
17763;SDS011;22245;52.832;13.816;2023-05-01T02:22:35;8.90;;;5.40;;
17763;SDS011;22245;52.832;13.816;2023-05-01T02:26:00;12.10;;;6.80;;
17763;SDS011;22245;52.832;13.816;2023-05-01T02:29:23;9.03;;;5.40;;
17763;SDS011;22245;52.832;13.816;2023-05-01T02:32:47;9.03;;;5.50;;
17763;SDS011;22245;52.832;13.816;2023-05-01T02:36:08;9.53;;;5.27;;
17763;SDS011;22245;52.832;13.816;2023-05-01T02:39:32;11.60;;;5.60;;
17763;SDS011;22245;52.832;13.816;2023-05-01T02:42:56;10.07;;;4.90;;
17763;SDS011;22245;52.832;13.816;2023-05-01T02:46:21;9.17;;;5.40;;
17763;SDS011;22245;52.832;13.816;2023-05-01T02:49:46;8.27;;;4.70;;
17763;SDS011;22245;52.832;13.816;2023-05-01T02:53:09;10.40;;;5.77;;
17763;SDS011;22245;52.832;13.816;2023-05-01T02:56:39;9.57;;;5.47;;
17763;SDS011;22245;52.832;13.816;2023-05-01T03:00:02;9.63;;;6.00;;
17763;SDS011;22245;52.832;13.816;2023-05-01T03:03:29;8.80;;;5.77;;
17763;SDS011;22245;52.832;13.816;2023-05-01T03:06:50;9.33;;;5.80;;
17763;SDS011;22245;52.832;13.816;2023-05-01T03:10:13;11.13;;;6.30;;
17763;SDS011;22245;52.832;13.816;2023-05-01T03:13:35;11.87;;;5.97;;
17763;SDS011;22245;52.832;13.816;2023-05-01T03:16:58;10.67;;;6.03;;
17763;SDS011;22245;52.832;13.816;2023-05-01T03:20:19;10.90;;;5.77;;
17763;SDS011;22245;52.832;13.816;2023-05-01T03:23:40;9.57;;;5.53;;
17763;SDS011;22245;52.832;13.816;2023-05-01T03:27:02;8.63;;;5.70;;
17763;SDS011;22245;52.832;13.816;2023-05-01T03:30:23;9.53;;;5.87;;
17763;SDS011;22245;52.832;13.816;2023-05-01T03:33:47;11.03;;;5.73;;
17763;SDS011;22245;52.832;13.816;2023-05-01T03:37:09;9.77;;;5.00;;
17763;SDS011;22245;52.832;13.816;2023-05-01T03:40:31;9.07;;;5.40;;
17763;SDS011;22245;52.832;13.816;2023-05-01T03:44:21;11.63;;;5.57;;
17763;SDS011;22245;52.832;13.816;2023-05-01T03:47:43;11.40;;;5.10;;
17763;SDS011;22245;52.832;13.816;2023-05-01T03:51:07;8.13;;;5.07;;
17763;SDS011;22245;52.832;13.816;2023-05-01T03:54:29;9.73;;;5.50;;
17763;SDS011;22245;52.832;13.816;2023-05-01T03:58:05;8.50;;;4.87;;
17763;SDS011;22245;52.832;13.816;2023-05-01T04:01:27;7.80;;;5.23;;
17763;SDS011;22245;52.832;13.816;2023-05-01T04:04:49;9.53;;;5.30;;
17763;SDS011;22245;52.832;13.816;2023-05-01T04:08:12;10.83;;;5.30;;
17763;SDS011;22245;52.832;13.816;2023-05-01T04:11:34;8.43;;;5.40;;
17763;SDS011;22245;52.832;13.816;2023-05-01T04:14:55;8.77;;;5.50;;
17763;SDS011;22245;52.832;13.816;2023-05-01T04:18:17;8.53;;;5.30;;
17763;SDS011;22245;52.832;13.816;2023-05-01T04:21:38;9.87;;;5.47;;
17763;SDS011;22245;52.832;13.816;2023-05-01T04:25:02;13.83;;;5.40;;
17763;SDS011;22245;52.832;13.816;2023-05-01T04:28:26;7.50;;;5.10;;
17763;SDS011;22245;52.832;13.816;2023-05-01T04:31:50;12.73;;;6.10;;
17763;SDS011;22245;52.832;13.816;2023-05-01T04:35:12;10.80;;;6.13;;
17763;SDS011;22245;52.832;13.816;2023-05-01T04:38:36;9.33;;;5.93;;
17763;SDS011;22245;52.832;13.816;2023-05-01T04:41:59;11.33;;;6.03;;
17763;SDS011;22245;52.832;13.816;2023-05-01T04:45:21;12.50;;;6.50;;
17763;SDS011;22245;52.832;13.816;2023-05-01T04:48:42;10.40;;;6.20;;
17763;SDS011;22245;52.832;13.816;2023-05-01T04:52:04;11.17;;;5.97;;
17763;SDS011;22245;52.832;13.816;2023-05-01T04:55:40;13.60;;;6.50;;
17763;SDS011;22245;52.832;13.816;2023-05-01T04:59:08;11.77;;;6.00;;
17763;SDS011;22245;52.832;13.816;2023-05-01T05:02:29;12.70;;;6.40;;
17763;SDS011;22245;52.832;13.816;2023-05-01T05:05:51;17.07;;;7.20;;
17763;SDS011;22245;52.832;13.816;2023-05-01T05:09:13;16.73;;;7.77;;
17763;SDS011;22245;52.832;13.816;2023-05-01T05:12:39;13.23;;;6.50;;
17763;SDS011;22245;52.832;13.816;2023-05-01T05:16:02;13.27;;;7.00;;
17763;SDS011;22245;52.832;13.816;2023-05-01T05:19:24;13.10;;;7.10;;
17763;SDS011;22245;52.832;13.816;2023-05-01T05:22:45;12.87;;;7.40;;
17763;SDS011;22245;52.832;13.816;2023-05-01T05:26:14;11.60;;;6.40;;
17763;SDS011;22245;52.832;13.816;2023-05-01T05:29:35;13.47;;;7.23;;
17763;SDS011;22245;52.832;13.816;2023-05-01T05:32:58;12.33;;;6.97;;
17763;SDS011;22245;52.832;13.816;2023-05-01T05:36:20;18.80;;;7.93;;
17763;SDS011;22245;52.832;13.816;2023-05-01T05:39:41;12.83;;;6.97;;
17763;SDS011;22245;52.832;13.816;2023-05-01T05:43:03;14.43;;;6.97;;
17763;SDS011;22245;52.832;13.816;2023-05-01T05:46:25;14.07;;;7.03;;
17763;SDS011;22245;52.832;13.816;2023-05-01T05:49:48;14.30;;;7.47;;
17763;SDS011;22245;52.832;13.816;2023-05-01T05:53:09;13.70;;;7.37;;
17763;SDS011;22245;52.832;13.816;2023-05-01T05:56:30;13.67;;;6.97;;
17763;SDS011;22245;52.832;13.816;2023-05-01T05:59:52;11.97;;;7.00;;
17763;SDS011;22245;52.832;13.816;2023-05-01T06:03:16;13.50;;;6.67;;
17763;SDS011;22245;52.832;13.816;2023-05-01T06:06:39;12.70;;;7.10;;
17763;SDS011;22245;52.832;13.816;2023-05-01T06:10:01;13.83;;;7.23;;
17763;SDS011;22245;52.832;13.816;2023-05-01T06:13:24;14.93;;;7.13;;
17763;SDS011;22245;52.832;13.816;2023-05-01T06:16:45;11.33;;;6.47;;
17763;SDS011;22245;52.832;13.816;2023-05-01T06:20:07;14.67;;;7.00;;
17763;SDS011;22245;52.832;13.816;2023-05-01T06:23:31;14.83;;;7.00;;
17763;SDS011;22245;52.832;13.816;2023-05-01T06:27:19;14.43;;;7.10;;
17763;SDS011;22245;52.832;13.816;2023-05-01T06:30:41;11.80;;;6.50;;
17763;SDS011;22245;52.832;13.816;2023-05-01T06:34:03;12.57;;;6.20;;
17763;SDS011;22245;52.832;13.816;2023-05-01T06:37:36;13.97;;;6.90;;
17763;SDS011;22245;52.832;13.816;2023-05-01T06:41:01;12.63;;;7.47;;
17763;SDS011;22245;52.832;13.816;2023-05-01T06:44:23;12.53;;;6.57;;
17763;SDS011;22245;52.832;13.816;2023-05-01T06:47:45;12.43;;;6.87;;
17763;SDS011;22245;52.832;13.816;2023-05-01T06:51:07;12.27;;;5.67;;
17763;SDS011;22245;52.832;13.816;2023-05-01T06:54:28;13.87;;;6.50;;
17763;SDS011;22245;52.832;13.816;2023-05-01T06:57:52;10.03;;;6.10;;
17763;SDS011;22245;52.832;13.816;2023-05-01T07:01:13;9.40;;;6.17;;
17763;SDS011;22245;52.832;13.816;2023-05-01T07:04:36;11.90;;;7.23;;
17763;SDS011;22245;52.832;13.816;2023-05-01T07:07:57;10.13;;;6.30;;
17763;SDS011;22245;52.832;13.816;2023-05-01T07:11:21;11.07;;;6.37;;
17763;SDS011;22245;52.832;13.816;2023-05-01T07:14:43;11.63;;;6.20;;
17763;SDS011;22245;52.832;13.816;2023-05-01T07:18:05;8.63;;;5.50;;
17763;SDS011;22245;52.832;13.816;2023-05-01T07:21:27;9.02;;;5.82;;
17763;SDS011;22245;52.832;13.816;2023-05-01T07:24:48;9.55;;;5.45;;
17763;SDS011;22245;52.832;13.816;2023-05-01T07:28:10;7.13;;;4.55;;
17763;SDS011;22245;52.832;13.816;2023-05-01T07:31:33;9.43;;;5.53;;
17763;SDS011;22245;52.832;13.816;2023-05-01T07:34:54;6.35;;;4.50;;
17763;SDS011;22245;52.832;13.816;2023-05-01T07:38:16;7.88;;;4.10;;
17763;SDS011;22245;52.832;13.816;2023-05-01T07:41:38;10.23;;;5.07;;
17763;SDS011;22245;52.832;13.816;2023-05-01T07:45:00;10.10;;;5.47;;
17763;SDS011;22245;52.832;13.816;2023-05-01T07:48:23;7.93;;;5.10;;
17763;SDS011;22245;52.832;13.816;2023-05-01T07:51:45;8.95;;;5.40;;
17763;SDS011;22245;52.832;13.816;2023-05-01T07:55:08;7.68;;;4.68;;
17763;SDS011;22245;52.832;13.816;2023-05-01T07:58:30;7.80;;;4.45;;
17763;SDS011;22245;52.832;13.816;2023-05-01T08:01:52;8.18;;;3.92;;
17763;SDS011;22245;52.832;13.816;2023-05-01T08:05:15;7.00;;;3.53;;
17763;SDS011;22245;52.832;13.816;2023-05-01T08:08:36;7.47;;;4.68;;
17763;SDS011;22245;52.832;13.816;2023-05-01T08:11:58;5.50;;;3.67;;
17763;SDS011;22245;52.832;13.816;2023-05-01T08:15:22;7.13;;;3.92;;
17763;SDS011;22245;52.832;13.816;2023-05-01T08:18:44;7.53;;;4.03;;
17763;SDS011;22245;52.832;13.816;2023-05-01T08:22:07;9.07;;;3.90;;
17763;SDS011;22245;52.832;13.816;2023-05-01T08:25:29;5.72;;;3.47;;
17763;SDS011;22245;52.832;13.816;2023-05-01T08:28:51;5.45;;;3.53;;
17763;SDS011;22245;52.832;13.816;2023-05-01T08:32:13;7.90;;;3.00;;
17763;SDS011;22245;52.832;13.816;2023-05-01T08:35:35;6.65;;;2.70;;
17763;SDS011;22245;52.832;13.816;2023-05-01T08:38:58;4.82;;;3.05;;
17763;SDS011;22245;52.832;13.816;2023-05-01T08:42:20;6.97;;;3.03;;
17763;SDS011;22245;52.832;13.816;2023-05-01T08:45:41;6.85;;;3.22;;
17763;SDS011;22245;52.832;13.816;2023-05-01T08:49:04;5.25;;;3.22;;
17763;SDS011;22245;52.832;13.816;2023-05-01T08:52:27;8.05;;;3.53;;
17763;SDS011;22245;52.832;13.816;2023-05-01T08:55:51;7.13;;;3.03;;
17763;SDS011;22245;52.832;13.816;2023-05-01T08:59:15;5.75;;;3.20;;
17763;SDS011;22245;52.832;13.816;2023-05-01T09:02:38;7.70;;;3.28;;
17763;SDS011;22245;52.832;13.816;2023-05-01T09:06:03;5.68;;;3.15;;
17763;SDS011;22245;52.832;13.816;2023-05-01T09:09:25;6.38;;;3.50;;
17763;SDS011;22245;52.832;13.816;2023-05-01T09:12:51;8.63;;;3.65;;
17763;SDS011;22245;52.832;13.816;2023-05-01T09:16:15;7.68;;;3.58;;
17763;SDS011;22245;52.832;13.816;2023-05-01T09:19:37;10.27;;;3.90;;
17763;SDS011;22245;52.832;13.816;2023-05-01T09:23:00;5.78;;;3.22;;
17763;SDS011;22245;52.832;13.816;2023-05-01T09:26:22;9.38;;;3.40;;
17763;SDS011;22245;52.832;13.816;2023-05-01T09:29:45;7.00;;;3.25;;
17763;SDS011;22245;52.832;13.816;2023-05-01T09:33:08;7.05;;;3.50;;
17763;SDS011;22245;52.832;13.816;2023-05-01T09:36:31;8.25;;;3.67;;
17763;SDS011;22245;52.832;13.816;2023-05-01T09:40:03;9.00;;;3.47;;
17763;SDS011;22245;52.832;13.816;2023-05-01T09:43:28;9.32;;;3.63;;
17763;SDS011;22245;52.832;13.816;2023-05-01T09:46:52;6.05;;;3.38;;
17763;SDS011;22245;52.832;13.816;2023-05-01T09:50:27;6.95;;;2.97;;
17763;SDS011;22245;52.832;13.816;2023-05-01T09:53:49;7.10;;;2.70;;
17763;SDS011;22245;52.832;13.816;2023-05-01T09:57:12;7.43;;;3.05;;
17763;SDS011;22245;52.832;13.816;2023-05-01T10:00:39;7.03;;;3.00;;
17763;SDS011;22245;52.832;13.816;2023-05-01T10:04:09;9.60;;;3.42;;
17763;SDS011;22245;52.832;13.816;2023-05-01T10:07:31;8.73;;;3.00;;
17763;SDS011;22245;52.832;13.816;2023-05-01T10:10:58;5.55;;;2.63;;
17763;SDS011;22245;52.832;13.816;2023-05-01T10:14:21;12.00;;;3.60;;
17763;SDS011;22245;52.832;13.816;2023-05-01T10:17:43;4.25;;;2.72;;
17763;SDS011;22245;52.832;13.816;2023-05-01T10:21:06;7.15;;;3.25;;
17763;SDS011;22245;52.832;13.816;2023-05-01T10:24:29;6.72;;;2.92;;
17763;SDS011;22245;52.832;13.816;2023-05-01T10:27:51;6.78;;;3.03;;
17763;SDS011;22245;52.832;13.816;2023-05-01T10:31:13;9.32;;;3.42;;
17763;SDS011;22245;52.832;13.816;2023-05-01T10:34:37;7.32;;;3.10;;
17763;SDS011;22245;52.832;13.816;2023-05-01T10:38:06;6.90;;;3.15;;
17763;SDS011;22245;52.832;13.816;2023-05-01T10:45:29;6.63;;;2.88;;
17763;SDS011;22245;52.832;13.816;2023-05-01T10:48:53;5.45;;;3.33;;
17763;SDS011;22245;52.832;13.816;2023-05-01T10:52:18;6.32;;;3.15;;
17763;SDS011;22245;52.832;13.816;2023-05-01T10:55:41;9.73;;;2.95;;
17763;SDS011;22245;52.832;13.816;2023-05-01T10:59:04;6.80;;;2.97;;
17763;SDS011;22245;52.832;13.816;2023-05-01T11:02:26;9.95;;;3.88;;
17763;SDS011;22245;52.832;13.816;2023-05-01T11:06:05;6.32;;;2.92;;
17763;SDS011;22245;52.832;13.816;2023-05-01T11:09:35;6.88;;;2.70;;
17763;SDS011;22245;52.832;13.816;2023-05-01T11:12:59;6.50;;;3.10;;
17763;SDS011;22245;52.832;13.816;2023-05-01T11:16:38;5.63;;;2.78;;
17763;SDS011;22245;52.832;13.816;2023-05-01T11:20:01;4.00;;;2.80;;
17763;SDS011;22245;52.832;13.816;2023-05-01T11:23:24;7.20;;;3.00;;
17763;SDS011;22245;52.832;13.816;2023-05-01T11:26:46;6.80;;;3.10;;
17763;SDS011;22245;52.832;13.816;2023-05-01T11:30:11;8.00;;;3.30;;
17763;SDS011;22245;52.832;13.816;2023-05-01T11:33:33;7.55;;;3.22;;
17763;SDS011;22245;52.832;13.816;2023-05-01T11:36:54;8.35;;;2.80;;
17763;SDS011;22245;52.832;13.816;2023-05-01T11:40:20;4.65;;;2.92;;
17763;SDS011;22245;52.832;13.816;2023-05-01T11:43:53;5.10;;;2.58;;
17763;SDS011;22245;52.832;13.816;2023-05-01T11:47:17;5.72;;;2.75;;
17763;SDS011;22245;52.832;13.816;2023-05-01T11:50:49;8.73;;;3.30;;
17763;SDS011;22245;52.832;13.816;2023-05-01T11:54:11;6.38;;;3.42;;
17763;SDS011;22245;52.832;13.816;2023-05-01T11:57:43;6.53;;;2.83;;
17763;SDS011;22245;52.832;13.816;2023-05-01T12:01:06;8.38;;;3.10;;
17763;SDS011;22245;52.832;13.816;2023-05-01T12:04:28;5.28;;;2.80;;
17763;SDS011;22245;52.832;13.816;2023-05-01T12:07:57;7.78;;;3.10;;
17763;SDS011;22245;52.832;13.816;2023-05-01T12:11:26;5.07;;;3.30;;
17763;SDS011;22245;52.832;13.816;2023-05-01T12:14:48;5.88;;;2.90;;
17763;SDS011;22245;52.832;13.816;2023-05-01T12:18:10;6.75;;;3.10;;
17763;SDS011;22245;52.832;13.816;2023-05-01T12:21:32;7.03;;;2.78;;
17763;SDS011;22245;52.832;13.816;2023-05-01T12:24:56;5.70;;;2.78;;
17763;SDS011;22245;52.832;13.816;2023-05-01T12:28:19;8.18;;;3.10;;
17763;SDS011;22245;52.832;13.816;2023-05-01T12:31:44;8.20;;;3.20;;
17763;SDS011;22245;52.832;13.816;2023-05-01T12:35:13;9.02;;;3.25;;
17763;SDS011;22245;52.832;13.816;2023-05-01T12:38:36;5.10;;;2.70;;
17763;SDS011;22245;52.832;13.816;2023-05-01T12:41:59;8.15;;;3.15;;
17763;SDS011;22245;52.832;13.816;2023-05-01T12:45:21;6.68;;;3.20;;
17763;SDS011;22245;52.832;13.816;2023-05-01T12:48:43;7.35;;;3.35;;
17763;SDS011;22245;52.832;13.816;2023-05-01T12:52:05;7.88;;;3.28;;
17763;SDS011;22245;52.832;13.816;2023-05-01T12:55:28;5.40;;;3.05;;
17763;SDS011;22245;52.832;13.816;2023-05-01T12:58:51;4.30;;;3.03;;
17763;SDS011;22245;52.832;13.816;2023-05-01T13:02:14;8.45;;;3.63;;
17763;SDS011;22245;52.832;13.816;2023-05-01T13:05:48;10.38;;;4.03;;
17763;SDS011;22245;52.832;13.816;2023-05-01T13:09:10;6.75;;;3.28;;
17763;SDS011;22245;52.832;13.816;2023-05-01T13:12:32;5.28;;;3.30;;
17763;SDS011;22245;52.832;13.816;2023-05-01T13:16:05;7.72;;;3.42;;
17763;SDS011;22245;52.832;13.816;2023-05-01T13:19:29;7.60;;;3.47;;
17763;SDS011;22245;52.832;13.816;2023-05-01T13:22:51;5.20;;;2.88;;
17763;SDS011;22245;52.832;13.816;2023-05-01T13:26:12;9.13;;;3.22;;
17763;SDS011;22245;52.832;13.816;2023-05-01T13:29:34;8.32;;;2.97;;
17763;SDS011;22245;52.832;13.816;2023-05-01T13:32:58;5.70;;;3.30;;
17763;SDS011;22245;52.832;13.816;2023-05-01T13:36:21;8.05;;;3.40;;
17763;SDS011;22245;52.832;13.816;2023-05-01T13:39:46;8.20;;;3.35;;
17763;SDS011;22245;52.832;13.816;2023-05-01T13:43:09;6.47;;;3.22;;
17763;SDS011;22245;52.832;13.816;2023-05-01T13:46:35;7.88;;;3.17;;
17763;SDS011;22245;52.832;13.816;2023-05-01T13:50:01;6.82;;;3.20;;
17763;SDS011;22245;52.832;13.816;2023-05-01T13:53:23;8.00;;;2.97;;
17763;SDS011;22245;52.832;13.816;2023-05-01T13:56:45;6.72;;;3.00;;
17763;SDS011;22245;52.832;13.816;2023-05-01T14:00:07;6.55;;;3.15;;
17763;SDS011;22245;52.832;13.816;2023-05-01T14:03:36;4.30;;;2.95;;
17763;SDS011;22245;52.832;13.816;2023-05-01T14:07:01;5.70;;;3.10;;
17763;SDS011;22245;52.832;13.816;2023-05-01T14:10:24;4.60;;;3.03;;
17763;SDS011;22245;52.832;13.816;2023-05-01T14:13:48;5.65;;;3.28;;
17763;SDS011;22245;52.832;13.816;2023-05-01T14:17:10;9.25;;;3.30;;
17763;SDS011;22245;52.832;13.816;2023-05-01T14:20:32;8.38;;;3.13;;
17763;SDS011;22245;52.832;13.816;2023-05-01T14:23:55;10.75;;;3.00;;
17763;SDS011;22245;52.832;13.816;2023-05-01T14:27:17;8.63;;;3.45;;
17763;SDS011;22245;52.832;13.816;2023-05-01T14:30:40;6.78;;;2.90;;
17763;SDS011;22245;52.832;13.816;2023-05-01T14:34:02;7.72;;;3.15;;
17763;SDS011;22245;52.832;13.816;2023-05-01T14:37:26;5.70;;;3.05;;
17763;SDS011;22245;52.832;13.816;2023-05-01T14:40:48;5.15;;;3.08;;
17763;SDS011;22245;52.832;13.816;2023-05-01T14:44:10;6.90;;;3.53;;
17763;SDS011;22245;52.832;13.816;2023-05-01T14:47:33;5.20;;;2.92;;
17763;SDS011;22245;52.832;13.816;2023-05-01T14:50:56;6.45;;;3.20;;
17763;SDS011;22245;52.832;13.816;2023-05-01T14:54:18;5.72;;;3.22;;
17763;SDS011;22245;52.832;13.816;2023-05-01T14:57:42;7.57;;;3.20;;
17763;SDS011;22245;52.832;13.816;2023-05-01T15:01:05;6.22;;;2.97;;
17763;SDS011;22245;52.832;13.816;2023-05-01T15:04:26;5.72;;;3.15;;
17763;SDS011;22245;52.832;13.816;2023-05-01T15:07:49;7.38;;;3.45;;
17763;SDS011;22245;52.832;13.816;2023-05-01T15:11:11;6.13;;;3.17;;
17763;SDS011;22245;52.832;13.816;2023-05-01T15:14:35;6.05;;;3.30;;
17763;SDS011;22245;52.832;13.816;2023-05-01T15:17:57;4.93;;;3.20;;
17763;SDS011;22245;52.832;13.816;2023-05-01T15:21:19;6.88;;;3.35;;
17763;SDS011;22245;52.832;13.816;2023-05-01T15:24:40;6.88;;;3.05;;
17763;SDS011;22245;52.832;13.816;2023-05-01T15:28:02;5.72;;;3.17;;
17763;SDS011;22245;52.832;13.816;2023-05-01T15:31:25;7.88;;;3.40;;
17763;SDS011;22245;52.832;13.816;2023-05-01T15:34:47;6.80;;;3.47;;
17763;SDS011;22245;52.832;13.816;2023-05-01T15:38:14;6.95;;;3.40;;
17763;SDS011;22245;52.832;13.816;2023-05-01T15:41:36;6.47;;;3.45;;
17763;SDS011;22245;52.832;13.816;2023-05-01T15:44:58;5.63;;;3.55;;
17763;SDS011;22245;52.832;13.816;2023-05-01T15:48:23;6.93;;;3.22;;
17763;SDS011;22245;52.832;13.816;2023-05-01T15:51:45;5.25;;;3.20;;
17763;SDS011;22245;52.832;13.816;2023-05-01T15:55:07;6.93;;;3.08;;
17763;SDS011;22245;52.832;13.816;2023-05-01T15:58:29;7.63;;;3.30;;
17763;SDS011;22245;52.832;13.816;2023-05-01T16:01:51;9.13;;;3.55;;
17763;SDS011;22245;52.832;13.816;2023-05-01T16:05:17;8.20;;;3.70;;
17763;SDS011;22245;52.832;13.816;2023-05-01T16:08:40;6.45;;;3.30;;
17763;SDS011;22245;52.832;13.816;2023-05-01T16:12:03;4.20;;;2.88;;
17763;SDS011;22245;52.832;13.816;2023-05-01T16:15:28;7.13;;;3.20;;
17763;SDS011;22245;52.832;13.816;2023-05-01T16:18:52;6.90;;;3.33;;
17763;SDS011;22245;52.832;13.816;2023-05-01T16:22:17;9.70;;;3.80;;
17763;SDS011;22245;52.832;13.816;2023-05-01T16:25:40;5.28;;;3.20;;
17763;SDS011;22245;52.832;13.816;2023-05-01T16:29:04;7.88;;;3.45;;
17763;SDS011;22245;52.832;13.816;2023-05-01T16:32:27;7.03;;;3.05;;
17763;SDS011;22245;52.832;13.816;2023-05-01T16:35:48;6.10;;;3.50;;
17763;SDS011;22245;52.832;13.816;2023-05-01T16:39:13;8.73;;;3.65;;
17763;SDS011;22245;52.832;13.816;2023-05-01T16:42:37;6.65;;;3.60;;
17763;SDS011;22245;52.832;13.816;2023-05-01T16:45:59;6.60;;;3.17;;
17763;SDS011;22245;52.832;13.816;2023-05-01T16:49:22;5.85;;;3.45;;
17763;SDS011;22245;52.832;13.816;2023-05-01T16:52:44;9.23;;;3.58;;
17763;SDS011;22245;52.832;13.816;2023-05-01T16:56:07;7.50;;;3.45;;
17763;SDS011;22245;52.832;13.816;2023-05-01T16:59:29;6.53;;;3.30;;
17763;SDS011;22245;52.832;13.816;2023-05-01T17:02:51;7.60;;;3.58;;
17763;SDS011;22245;52.832;13.816;2023-05-01T17:06:14;4.68;;;3.20;;
17763;SDS011;22245;52.832;13.816;2023-05-01T17:09:35;5.38;;;3.42;;
17763;SDS011;22245;52.832;13.816;2023-05-01T17:12:59;7.25;;;4.20;;
17763;SDS011;22245;52.832;13.816;2023-05-01T17:16:21;8.05;;;3.58;;
17763;SDS011;22245;52.832;13.816;2023-05-01T17:19:42;9.00;;;4.32;;
17763;SDS011;22245;52.832;13.816;2023-05-01T17:23:04;8.00;;;4.03;;
17763;SDS011;22245;52.832;13.816;2023-05-01T17:26:25;6.43;;;3.58;;
17763;SDS011;22245;52.832;13.816;2023-05-01T17:29:48;5.78;;;3.70;;
17763;SDS011;22245;52.832;13.816;2023-05-01T17:33:10;6.65;;;4.10;;
17763;SDS011;22245;52.832;13.816;2023-05-01T17:36:32;9.85;;;3.92;;
17763;SDS011;22245;52.832;13.816;2023-05-01T17:39:53;6.00;;;3.33;;
17763;SDS011;22245;52.832;13.816;2023-05-01T17:43:16;8.90;;;5.32;;
17763;SDS011;22245;52.832;13.816;2023-05-01T17:46:39;7.22;;;4.50;;
17763;SDS011;22245;52.832;13.816;2023-05-01T17:50:01;6.95;;;4.43;;
17763;SDS011;22245;52.832;13.816;2023-05-01T17:53:24;14.65;;;6.68;;
17763;SDS011;22245;52.832;13.816;2023-05-01T17:56:45;17.67;;;9.80;;
17763;SDS011;22245;52.832;13.816;2023-05-01T18:00:08;19.00;;;10.35;;
17763;SDS011;22245;52.832;13.816;2023-05-01T18:03:35;16.90;;;9.55;;
17763;SDS011;22245;52.832;13.816;2023-05-01T18:06:56;17.05;;;7.20;;
17763;SDS011;22245;52.832;13.816;2023-05-01T18:10:19;8.98;;;5.13;;
17763;SDS011;22245;52.832;13.816;2023-05-01T18:13:41;13.50;;;6.32;;
17763;SDS011;22245;52.832;13.816;2023-05-01T18:17:06;10.63;;;5.30;;
17763;SDS011;22245;52.832;13.816;2023-05-01T18:20:29;18.13;;;4.70;;
17763;SDS011;22245;52.832;13.816;2023-05-01T18:23:51;10.18;;;4.10;;
17763;SDS011;22245;52.832;13.816;2023-05-01T18:27:13;9.35;;;4.28;;
17763;SDS011;22245;52.832;13.816;2023-05-01T18:30:34;12.30;;;4.03;;
17763;SDS011;22245;52.832;13.816;2023-05-01T18:33:56;12.27;;;4.35;;
17763;SDS011;22245;52.832;13.816;2023-05-01T18:37:19;6.68;;;4.20;;
17763;SDS011;22245;52.832;13.816;2023-05-01T18:40:42;8.68;;;3.92;;
17763;SDS011;22245;52.832;13.816;2023-05-01T18:44:03;11.40;;;4.50;;
17763;SDS011;22245;52.832;13.816;2023-05-01T18:47:25;8.18;;;4.30;;
17763;SDS011;22245;52.832;13.816;2023-05-01T18:50:47;9.45;;;4.30;;
17763;SDS011;22245;52.832;13.816;2023-05-01T18:54:28;13.77;;;5.00;;
17763;SDS011;22245;52.832;13.816;2023-05-01T18:57:50;6.35;;;4.00;;
17763;SDS011;22245;52.832;13.816;2023-05-01T19:01:12;4.55;;;3.08;;
17763;SDS011;22245;52.832;13.816;2023-05-01T19:04:35;9.40;;;3.35;;
17763;SDS011;22245;52.832;13.816;2023-05-01T19:08:15;8.23;;;3.75;;
17763;SDS011;22245;52.832;13.816;2023-05-01T19:11:38;5.50;;;3.83;;
17763;SDS011;22245;52.832;13.816;2023-05-01T19:15:00;10.25;;;4.53;;
17763;SDS011;22245;52.832;13.816;2023-05-01T19:18:22;7.25;;;4.28;;
17763;SDS011;22245;52.832;13.816;2023-05-01T19:21:44;8.23;;;4.00;;
17763;SDS011;22245;52.832;13.816;2023-05-01T19:25:05;8.07;;;3.95;;
17763;SDS011;22245;52.832;13.816;2023-05-01T19:28:29;11.35;;;4.88;;
17763;SDS011;22245;52.832;13.816;2023-05-01T19:31:50;11.60;;;5.03;;
17763;SDS011;22245;52.832;13.816;2023-05-01T19:35:12;5.80;;;3.95;;
17763;SDS011;22245;52.832;13.816;2023-05-01T19:38:34;14.93;;;6.43;;
17763;SDS011;22245;52.832;13.816;2023-05-01T19:41:57;8.88;;;4.63;;
17763;SDS011;22245;52.832;13.816;2023-05-01T19:45:19;6.85;;;3.65;;
17763;SDS011;22245;52.832;13.816;2023-05-01T19:48:41;10.23;;;4.05;;
17763;SDS011;22245;52.832;13.816;2023-05-01T19:52:03;10.80;;;4.00;;
17763;SDS011;22245;52.832;13.816;2023-05-01T19:55:25;10.30;;;4.07;;
17763;SDS011;22245;52.832;13.816;2023-05-01T19:58:47;10.68;;;3.75;;
17763;SDS011;22245;52.832;13.816;2023-05-01T20:02:09;7.68;;;4.03;;
17763;SDS011;22245;52.832;13.816;2023-05-01T20:05:31;7.13;;;3.63;;
17763;SDS011;22245;52.832;13.816;2023-05-01T20:08:52;6.35;;;3.67;;